createdAt,value
2023-01-22T00:04:27.763Z,100237.70
2023-01-22T00:09:31.250Z,100239.68
2023-01-22T00:14:34.267Z,100243.90
2023-01-22T00:19:37.189Z,100248.42
2023-01-22T00:24:40.176Z,100259.98
2023-01-22T00:29:43.120Z,100267.73
2023-01-22T00:34:52.321Z,100278.39
2023-01-22T00:39:55.256Z,100283.82
2023-01-22T00:44:59.852Z,100283.98
2023-01-22T00:50:02.889Z,100277.36
2023-01-22T00:55:06.720Z,100279.45
2023-01-22T01:00:11.187Z,100277.95
2023-01-22T01:05:14.206Z,100281.51
2023-01-22T01:10:17.863Z,100280.23
2023-01-22T01:15:20.952Z,100276.90
2023-01-22T01:20:23.915Z,100280.48
2023-01-22T01:25:26.837Z,100286.89
2023-01-22T01:30:29.740Z,100289.03
2023-01-22T01:35:32.722Z,100280.00
2023-01-22T01:40:35.657Z,100289.01
2023-01-22T01:45:39.588Z,100299.17
2023-01-22T01:50:46.290Z,100299.17
2023-01-22T01:55:49.754Z,100291.16
2023-01-22T02:00:59.724Z,100293.92
2023-01-22T02:06:02.746Z,100298.48
2023-01-22T02:11:06.091Z,100292.80
2023-01-22T02:16:10.478Z,100288.11
2023-01-22T02:21:45.737Z,100291.29
2023-01-22T02:26:48.742Z,100291.31
2023-01-22T02:31:51.704Z,100299.49
2023-01-22T02:36:54.769Z,100305.41
2023-01-22T02:41:58.615Z,100314.12
2023-01-22T02:47:01.763Z,100318.33
2023-01-22T02:52:04.927Z,100316.35
2023-01-22T02:57:07.866Z,100316.72
2023-01-22T03:02:10.839Z,100323.20
2023-01-22T03:07:13.908Z,100327.92
2023-01-22T03:12:16.892Z,100323.48
2023-01-22T03:17:38.560Z,100311.70
2023-01-22T03:22:41.503Z,100316.95
2023-01-22T03:28:04.409Z,100320.13
2023-01-22T03:33:07.336Z,100324.87
2023-01-22T03:38:10.286Z,100332.27
2023-01-22T03:43:13.219Z,100330.05
2023-01-22T03:48:16.144Z,100341.98
2023-01-22T03:53:19.097Z,100348.09
2023-01-22T03:58:22.030Z,100345.59
2023-01-22T04:03:27.184Z,100355.35
2023-01-22T04:08:33.045Z,100355.55
2023-01-22T04:13:38.191Z,100353.66
2023-01-22T04:18:42.118Z,100359.15
2023-01-22T04:23:44.973Z,100358.73
2023-01-22T04:28:47.918Z,100354.52
2023-01-22T04:33:50.869Z,100354.59
2023-01-22T04:38:53.903Z,100362.56
2023-01-22T04:43:56.933Z,100362.59
2023-01-22T04:48:59.885Z,100365.35
2023-01-22T04:54:02.881Z,100370.20
2023-01-22T04:59:05.833Z,100376.02
2023-01-22T05:04:08.781Z,100388.00
2023-01-22T05:09:11.722Z,100390.35
2023-01-22T05:14:14.686Z,100395.81
2023-01-22T05:19:17.841Z,100400.12
2023-01-22T05:24:20.801Z,100399.70
2023-01-22T05:29:27.263Z,100407.14
2023-01-22T05:34:30.232Z,100413.11
2023-01-22T05:39:33.137Z,100426.26
2023-01-22T05:44:36.080Z,100431.20
2023-01-22T05:49:39.053Z,100433.66
2023-01-22T05:54:42.054Z,100433.38
2023-01-22T05:59:45.229Z,100439.27
2023-01-22T06:04:48.167Z,100438.39
2023-01-22T06:09:51.120Z,100437.02
2023-01-22T06:14:54.424Z,100444.00
2023-01-22T06:19:57.355Z,100443.50
2023-01-22T06:25:00.318Z,100449.23
2023-01-22T06:30:03.484Z,100447.77
2023-01-22T06:35:06.886Z,100459.45
2023-01-22T06:40:10.781Z,100468.18
2023-01-22T06:45:13.566Z,100464.91
2023-01-22T06:50:17.266Z,100471.09
2023-01-22T06:55:20.351Z,100480.39
2023-01-22T07:00:23.623Z,100485.35
2023-01-22T07:05:27.535Z,100485.36
2023-01-22T07:10:30.362Z,100492.77
2023-01-22T07:15:33.734Z,100496.52
2023-01-22T07:20:37.220Z,100497.08
2023-01-22T07:25:40.511Z,100505.13
2023-01-22T07:30:46.441Z,100512.46
2023-01-22T07:35:56.729Z,100518.46
2023-01-22T07:41:20.306Z,100526.34
2023-01-22T07:46:28.209Z,100527.02
2023-01-22T07:51:31.509Z,100524.95
2023-01-22T07:56:34.476Z,100534.17
2023-01-22T08:01:37.457Z,100541.67
2023-01-22T08:06:40.415Z,100545.80
2023-01-22T08:11:43.317Z,100546.67
2023-01-22T08:16:46.795Z,100548.89
2023-01-22T08:21:49.781Z,100554.36
2023-01-22T08:26:52.838Z,100562.95
2023-01-22T08:31:55.876Z,100566.20
2023-01-22T08:36:58.900Z,100570.63
2023-01-22T08:42:01.905Z,100575.20
2023-01-22T08:47:05.251Z,100575.39
2023-01-22T08:52:08.207Z,100575.42
2023-01-22T08:57:11.139Z,100580.88
2023-01-22T09:02:14.214Z,100589.08
2023-01-22T09:07:17.278Z,100592.30
2023-01-22T09:12:20.222Z,100591.79
2023-01-22T09:17:23.179Z,100596.25
2023-01-22T09:22:26.110Z,100593.81
2023-01-22T09:27:29.020Z,100590.20
2023-01-22T09:32:31.949Z,100586.45
2023-01-22T09:37:34.922Z,100590.59
2023-01-22T09:42:40.714Z,100588.00
2023-01-22T09:47:47.745Z,100581.31
2023-01-22T09:52:53.784Z,100581.48
2023-01-22T09:58:01.682Z,100575.00
2023-01-22T10:03:22.861Z,100574.32
2023-01-22T10:08:33.519Z,100572.58
2023-01-22T10:13:38.991Z,100576.34
2023-01-22T10:18:56.932Z,100575.98
2023-01-22T10:24:00.625Z,100576.85
2023-01-22T10:29:12.960Z,100573.77
2023-01-22T10:34:37.166Z,100572.39
2023-01-22T10:39:43.581Z,100567.44
2023-01-22T10:44:47.193Z,100562.52
2023-01-22T10:50:04.688Z,100561.27
2023-01-22T10:55:22.067Z,100567.57
2023-01-22T11:00:51.469Z,100565.18
2023-01-22T11:06:00.622Z,100564.71
2023-01-22T11:11:09.518Z,100562.51
2023-01-22T11:16:22.734Z,100558.91
2023-01-22T11:21:37.906Z,100552.92
2023-01-22T11:27:14.571Z,100546.13
2023-01-22T11:32:26.865Z,100530.02
2023-01-22T11:38:02.795Z,100535.16
2023-01-22T11:43:36.115Z,100548.34
2023-01-22T11:49:08.330Z,100563.39
2023-01-22T11:54:58.665Z,100567.64
2023-01-22T12:00:17.726Z,100569.28
2023-01-22T12:05:32.988Z,100567.91
2023-01-22T12:11:00.928Z,100568.63
2023-01-22T12:16:15.552Z,100570.05
2023-01-22T12:22:08.958Z,100567.30
2023-01-22T12:27:39.884Z,100567.80
2023-01-22T12:32:49.657Z,100572.09
2023-01-22T12:38:20.486Z,100576.89
2023-01-22T12:43:55.841Z,100581.64
2023-01-22T12:49:06.223Z,100580.46
2023-01-22T12:54:17.693Z,100581.52
2023-01-22T12:59:48.542Z,100578.97
2023-01-22T13:04:52.375Z,100578.27
2023-01-22T13:10:21.446Z,100583.39
2023-01-22T13:15:37.357Z,100588.72
2023-01-22T13:21:15.215Z,100592.18
2023-01-22T13:26:26.559Z,100596.98
2023-01-22T13:31:29.783Z,100600.03
2023-01-22T13:36:32.701Z,100601.94
2023-01-22T13:41:39.321Z,100598.73
2023-01-22T13:46:42.384Z,100604.88
2023-01-22T13:51:46.161Z,100608.80
2023-01-22T13:56:49.524Z,100611.36
2023-01-22T14:01:52.547Z,100612.38
2023-01-22T14:06:55.898Z,100617.69
2023-01-22T14:12:00.474Z,100619.91
2023-01-22T14:17:03.402Z,100617.67
2023-01-22T14:22:06.358Z,100621.63
2023-01-22T14:27:09.395Z,100628.83
2023-01-22T14:32:12.322Z,100636.55
2023-01-22T14:37:17.048Z,100643.55
2023-01-22T14:42:20.248Z,100656.21
2023-01-22T14:47:23.179Z,100661.19
2023-01-22T14:52:26.160Z,100668.56
2023-01-22T14:57:29.121Z,100670.78
2023-01-22T15:02:32.588Z,100677.80
2023-01-22T15:07:37.261Z,100681.56
2023-01-22T15:12:40.440Z,100689.94
2023-01-22T15:17:43.347Z,100695.58
2023-01-22T15:22:47.741Z,100708.23
2023-01-22T15:27:50.673Z,100705.48
2023-01-22T15:32:53.603Z,100709.80
2023-01-22T15:37:56.570Z,100710.48
2023-01-22T15:42:59.520Z,100708.44
2023-01-22T15:48:02.516Z,100711.86
2023-01-22T15:53:05.450Z,100715.96
2023-01-22T15:58:08.392Z,100719.23
2023-01-22T16:03:12.123Z,100725.71
2023-01-22T16:08:15.088Z,100733.91
2023-01-22T16:13:18.028Z,100737.52
2023-01-22T16:18:20.983Z,100744.36
2023-01-22T16:23:23.964Z,100749.31
2023-01-22T16:28:27.674Z,100751.88
2023-01-22T16:33:32.891Z,100755.14
2023-01-22T16:38:37.044Z,100756.00
2023-01-22T16:43:39.961Z,100754.64
2023-01-22T16:48:43.766Z,100752.57
2023-01-22T16:53:48.234Z,100752.58
2023-01-22T16:58:51.360Z,100756.52
2023-01-22T17:03:54.300Z,100760.12
2023-01-22T17:08:57.574Z,100762.67
2023-01-22T17:14:02.036Z,100767.98
2023-01-22T17:19:05.672Z,100767.65
2023-01-22T17:24:13.832Z,100766.27
2023-01-22T17:29:16.767Z,100776.38
2023-01-22T17:34:19.793Z,100775.85
2023-01-22T17:39:24.077Z,100775.00
2023-01-22T17:44:27.419Z,100780.65
2023-01-22T17:49:30.856Z,100788.67
2023-01-22T17:54:33.774Z,100802.54
2023-01-22T17:59:37.172Z,100807.16
2023-01-22T18:04:40.167Z,100814.34
2023-01-22T18:09:43.130Z,100823.75
2023-01-22T18:14:46.081Z,100823.75
2023-01-22T18:19:49.239Z,100825.46
2023-01-22T18:24:52.177Z,100823.41
2023-01-22T18:29:55.135Z,100825.63
2023-01-22T18:34:58.215Z,100832.30
2023-01-22T18:40:01.201Z,100840.70
2023-01-22T18:45:04.769Z,100837.45
2023-01-22T18:50:11.972Z,100838.29
2023-01-22T18:55:17.287Z,100836.07
2023-01-22T19:00:20.811Z,100839.67
2023-01-22T19:05:25.619Z,100839.33
2023-01-22T19:10:28.550Z,100839.67
2023-01-22T19:15:33.489Z,100837.09
2023-01-22T19:20:38.304Z,100842.40
2023-01-22T19:25:41.360Z,100853.70
2023-01-22T19:30:44.455Z,100858.31
2023-01-22T19:35:49.518Z,100862.77
2023-01-22T19:40:53.906Z,100871.68
2023-01-22T19:45:56.843Z,100874.25
2023-01-22T19:51:06.723Z,100883.14
2023-01-22T19:56:21.111Z,100887.09
2023-01-22T20:01:24.102Z,100888.29
2023-01-22T20:06:27.696Z,100890.33
2023-01-22T20:11:31.063Z,100894.09
2023-01-22T20:16:34.147Z,100895.98
2023-01-22T20:21:37.195Z,100899.08
2023-01-22T20:26:40.590Z,100894.77
2023-01-22T20:31:44.523Z,100892.55
2023-01-22T20:36:47.564Z,100895.13
2023-01-22T20:41:50.614Z,100894.77
2023-01-22T20:46:53.651Z,100899.94
2023-01-22T20:51:56.584Z,100902.48
2023-01-22T20:56:59.511Z,100901.12
2023-01-22T21:02:02.501Z,100902.14
2023-01-22T21:07:05.442Z,100898.20
2023-01-22T21:12:08.857Z,100908.64
2023-01-22T21:17:12.466Z,100912.41
2023-01-22T21:22:15.378Z,100914.13
2023-01-22T21:27:18.315Z,100919.77
2023-01-22T21:32:21.285Z,100918.07
2023-01-22T21:37:24.240Z,100920.80
2023-01-22T21:42:47.121Z,100928.16
2023-01-22T21:47:50.081Z,100931.93
2023-01-22T21:52:54.530Z,100932.10
2023-01-22T21:57:57.450Z,100936.89
2023-01-22T22:03:00.406Z,100937.41
2023-01-22T22:08:03.376Z,100941.35
2023-01-22T22:13:06.312Z,100944.09
2023-01-22T22:18:09.373Z,100958.65
2023-01-22T22:23:12.311Z,100961.55
2023-01-22T22:28:17.699Z,100969.61
2023-01-22T22:33:20.692Z,100969.10
2023-01-22T22:38:23.638Z,100968.05
2023-01-22T22:43:26.672Z,100968.59
2023-01-22T22:48:29.655Z,100978.50
2023-01-22T22:53:32.576Z,100986.39
2023-01-22T22:58:36.252Z,100986.23
2023-01-22T23:03:40.985Z,100976.80
2023-01-22T23:08:48.369Z,100979.55
2023-01-22T23:13:52.155Z,100984.52
2023-01-22T23:18:55.818Z,100979.89
2023-01-22T23:23:58.804Z,100985.87
2023-01-22T23:29:06.241Z,100995.81
2023-01-22T23:34:14.578Z,100991.70
2023-01-22T23:39:20.415Z,100988.61
2023-01-22T23:44:23.460Z,100990.17
2023-01-22T23:49:26.362Z,100986.74
2023-01-22T23:54:29.306Z,100988.11
2023-01-22T23:59:32.229Z,100985.20
